LIMLLIRP

Guest
Details From LIML - Milano Linate
To LIRP - Pisa
Flight Number -
Tags Generated
Created
Modified
Stats Distance 117 nm / 217 km
Max Altitude 0 ft / 0 m
Waypoints 2
Social Downloads 3
Likes 0
Share VATSIM

Download

Looking for another format? Having issues loading an existing format? Contact us
Advertisement - Login to hide

Notes

Generated

Route

LIML LIRP

ID Type Via Altitude Latitude Longitude Leg Dist Tot Dist Heading (true) Name
O LIML APT - 0 ft / 0 m 45.45804˚ 9.26826˚ - 0 nm - -
O LIRP APT - 0 ft / 0 m 43.67384˚ 10.38072˚ 117 nm 117 nm 156° / 156° -

Altitude Profile

Advertisement - Login to hide

LIML

Details ICAO LIML (LIN)
Name Milano Linate
Region Italy
Timezone Europe/Rome (UTC+1.0)
Stats Elevation 353 ft / 108 m (AMSL)
Location 45.450302° 9.272801°
Runways 2
Magnetic Variation 2.501° E

METAR

LIML 151550Z VRB02KT 4000 BR SCT080 04/02 Q0997 NOSIG

Decode

TAF

TAF LIML 151100Z 1512/1612 VRB05KT 2000 BR SCT020 BECMG 1514/1516 4000 TEMPO 1600/1606 1500 BCFG

Decode

Departure Runways

ID Width Length Bearing (true) Bearing (mag) Surface Threshold Offset Overrun Length
17 72 ft / 22 m 1,975 ft / 602 m 175.64° 173.14° Asphalt 200 ft / 61 m 0 ft / 0 m
18 197 ft / 60 m 8,017 ft / 2,443 m 175.67° 173.17° Asphalt 0 ft / 0 m 190 ft / 58 m
35 72 ft / 22 m 1,975 ft / 602 m 355.64° 353.14° Asphalt 200 ft / 61 m 0 ft / 0 m
36 197 ft / 60 m 8,017 ft / 2,443 m 355.68° 353.18° Asphalt 0 ft / 0 m 980 ft / 299 m

LIRP

Details ICAO LIRP (PSA)
Name PISA
Region Italy
Timezone Europe/Rome (UTC+1.0)
Stats Elevation 6 ft / 2 m (AMSL)
Location 43.683883° 10.392724°
Runways 2
Magnetic Variation 2.704° E

METAR

LIRP 151545Z 25016KT 9999 BKN025 BKN050 12/08 Q0997 TEMPO FEW020CB

Decode

TAF

TAF LIRP 151100Z 1512/1612 23010KT 9999 FEW020 SCT030 TEMPO 1512/1612 5000 RA BR PROB30 TEMPO 1512/1518 3000 SHRA FEW015CB BKN030 PROB40 TEMPO 1603/1612 2000 TSRA SCT015CB BKN020

Decode

Destination Runways

ID Width Length Bearing (true) Bearing (mag) Surface Threshold Offset Overrun Length
04L 141 ft / 43 m 9,158 ft / 2,791 m 36.70° 34.00° Asphalt 979 ft / 298 m 0 ft / 0 m
04R 148 ft / 45 m 9,819 ft / 2,993 m 36.72° 34.02° Asphalt 490 ft / 149 m 0 ft / 0 m
22L 148 ft / 45 m 9,819 ft / 2,993 m 216.73° 214.03° Asphalt 843 ft / 257 m 0 ft / 0 m
22R 141 ft / 43 m 9,158 ft / 2,791 m 216.72° 214.02° Asphalt 0 ft / 0 m 0 ft / 0 m

Approach Navaids

Runway Type Ident Frequency Range Bearing (true) Bearing (mag) Slope Elevation
04R Localiser IPI 109.70 MHz 18 nm / 33 km 36.76° 34.06° - 7 ft / 2 m (AMSL)
04R Glidescope IPI 109.70 MHz 10 nm / 19 km 36.72° 34.02° 3.00° 3 ft / 1 m (AMSL)

Popular Alternatives